Time;durP1;ratioP1;P1;durP2;ratioP2;P2;SDS_P1;SDS_P2;PMS_P1;PMS_P2;Temp;Humidity;BMP_temperature;BMP_pressure;BME280_temperature;BME280_humidity;BME280_pressure;Samples;Min_cycle;Max_cycle;Signal;HPM_P1;HPM_P2
2022/11/12 00:00:51;;;;;;;4.4;2.8;;;;;;;4.98;96.31055;952.2681;;;;
2022/11/12 00:03:17;;;;;;;4.8;3.2;;;;;;;5.05;96.06738;952.2296;;;;
2022/11/12 00:05:43;;;;;;;4.2;2.8;;;;;;;4.91;96.60938;952.23;;;;
2022/11/12 00:08:09;;;;;;;4.4;2.8;;;;;;;4.91;96.37305;952.2078;;;;
2022/11/12 00:10:50;;;;;;;4.2;3;;;;;;;4.86;96.94824;952.1537;;;;
2022/11/12 00:13:37;;;;;;;5.6;3.3;;;;;;;4.92;96.42188;952.2012;;;;
2022/11/12 00:16:25;;;;;;;6.7;4.1;;;;;;;4.82;96.55566;952.128;;;;
2022/11/12 00:18:51;;;;;;;4.9;3.8;;;;;;;4.89;96.18848;952.1389;;;;
2022/11/12 00:21:29;;;;;;;6.4;4.3;;;;;;;4.89;95.98535;952.1086;;;;
2022/11/12 00:24:02;;;;;;;8.6;5.1;;;;;;;4.94;95.60156;952.1483;;;;
2022/11/12 00:26:32;;;;;;;6.7;4.6;;;;;;;5.05;94.72559;952.158;;;;
2022/11/12 00:28:57;;;;;;;6.7;4.3;;;;;;;5;94.48828;952.1436;;;;
2022/11/12 00:31:25;;;;;;;5.2;3.8;;;;;;;5.01;94.49023;952.1792;;;;
2022/11/12 00:33:53;;;;;;;5.1;3.3;;;;;;;4.99;94.21582;952.1472;;;;
2022/11/12 00:36:18;;;;;;;5.3;3.6;;;;;;;4.76;95.12109;952.1281;;;;
2022/11/12 00:38:43;;;;;;;5.9;3.1;;;;;;;4.62;96.25098;952.0561;;;;
2022/11/12 00:41:08;;;;;;;4.8;3.4;;;;;;;4.7;95.96582;952.067;;;;
2022/11/12 00:43:36;;;;;;;5.5;2.8;;;;;;;4.76;95.86719;952.0574;;;;
2022/11/12 00:46:01;;;;;;;4.4;2.8;;;;;;;4.83;95.56738;952.1367;;;;
2022/11/12 00:48:28;;;;;;;4.7;2.9;;;;;;;4.85;94.95215;952.0859;;;;
2022/11/12 00:50:53;;;;;;;4.7;2.8;;;;;;;4.73;95.32031;952.1697;;;;
2022/11/12 00:53:18;;;;;;;5.4;2.9;;;;;;;4.46;96.92383;952.1505;;;;
2022/11/12 00:55:43;;;;;;;6.9;3.5;;;;;;;4.51;97.24023;952.1501;;;;
2022/11/12 00:58:09;;;;;;;6.1;3.7;;;;;;;4.51;96.96094;951.9469;;;;
2022/11/12 01:00:34;;;;;;;6.4;3.8;;;;;;;4.54;96.84082;952.0728;;;;
2022/11/12 01:03:01;;;;;;;8.1;5.1;;;;;;;4.49;97.01074;951.9528;;;;
2022/11/12 01:05:27;;;;;;;7.9;5.6;;;;;;;4.42;97.06152;951.9766;;;;
2022/11/12 01:07:52;;;;;;;8.7;5.8;;;;;;;4.45;97.40527;951.9645;;;;
2022/11/12 01:10:17;;;;;;;7.7;4.2;;;;;;;4.44;97.37207;951.8995;;;;
2022/11/12 01:12:44;;;;;;;5.1;3.2;;;;;;;4.4;97.60938;951.8519;;;;
2022/11/12 01:15:09;;;;;;;5.5;3.5;;;;;;;4.53;97.13184;951.9124;;;;
2022/11/12 01:17:36;;;;;;;6.6;3.4;;;;;;;4.64;96.12207;951.9281;;;;
2022/11/12 01:20:01;;;;;;;6.8;4.1;;;;;;;4.56;96.02539;951.9196;;;;
2022/11/12 01:22:27;;;;;;;7.6;3.5;;;;;;;4.43;96.60254;951.9217;;;;
2022/11/12 01:24:52;;;;;;;3.9;2.6;;;;;;;4.53;97.13184;951.9202;;;;
2022/11/12 01:27:17;;;;;;;4.6;3.1;;;;;;;4.58;96.27441;951.8447;;;;
2022/11/12 01:29:42;;;;;;;3.3;2.5;;;;;;;4.59;96.58496;951.8929;;;;
2022/11/12 01:32:08;;;;;;;3.9;2.4;;;;;;;4.74;96.40137;951.8865;;;;
2022/11/12 01:34:33;;;;;;;3.7;2.5;;;;;;;4.84;95.05176;951.8325;;;;
2022/11/12 01:37:00;;;;;;;6.7;4.1;;;;;;;4.84;94.40918;951.838;;;;
2022/11/12 01:39:25;;;;;;;21.7;12.4;;;;;;;4.84;94.01465;951.8332;;;;
2022/11/12 01:41:51;;;;;;;14.1;8.7;;;;;;;4.96;93.2627;951.8491;;;;
2022/11/12 01:44:16;;;;;;;18.8;11.6;;;;;;;5.02;92.41992;951.7584;;;;
2022/11/12 01:46:41;;;;;;;16.8;10.7;;;;;;;5.08;92.07129;951.7971;;;;
2022/11/12 01:49:07;;;;;;;16.4;9.2;;;;;;;5.15;91.51172;951.758;;;;
2022/11/12 01:51:32;;;;;;;12.2;6.8;;;;;;;5.17;91.52734;951.7841;;;;
2022/11/12 01:53:57;;;;;;;6.8;4.6;;;;;;;5.13;91.41797;951.7498;;;;
2022/11/12 01:56:22;;;;;;;6.4;3.3;;;;;;;4.91;93.00293;951.698;;;;
2022/11/12 01:58:48;;;;;;;7.5;4.4;;;;;;;4.88;92.87305;951.723;;;;
2022/11/12 02:01:13;;;;;;;6.2;3.7;;;;;;;4.92;92.3877;951.7349;;;;
2022/11/12 02:03:41;;;;;;;6.4;3.2;;;;;;;4.79;92.84277;951.7054;;;;
2022/11/12 02:06:09;;;;;;;5.4;3.3;;;;;;;4.57;93.86523;951.618;;;;
2022/11/12 02:08:34;;;;;;;5.6;3.3;;;;;;;4.5;94.12891;951.6669;;;;
2022/11/12 02:11:00;;;;;;;5.1;3.1;;;;;;;4.51;94.22266;951.5342;;;;
2022/11/12 02:15:56;;;;;;;2.6;1.9;;;;;;;4.56;94.8291;951.6448;;;;
2022/11/12 02:19:01;;;;;;;2;1.8;;;;;;;4.73;93.87598;951.7349;;;;
2022/11/12 02:21:26;;;;;;;2.2;1.8;;;;;;;4.88;92.65918;951.6342;;;;
2022/11/12 02:23:51;;;;;;;4.1;2.4;;;;;;;4.99;92.13965;951.6063;;;;
2022/11/12 02:26:16;;;;;;;3.6;2.5;;;;;;;5.02;91.54102;951.6669;;;;
2022/11/12 02:28:41;;;;;;;4.5;2.8;;;;;;;4.82;92.08398;951.6705;;;;
2022/11/12 02:31:07;;;;;;;8.9;4.8;;;;;;;4.79;92.98926;951.577;;;;
2022/11/12 02:33:33;;;;;;;30.1;12.6;;;;;;;4.89;92.875;951.6291;;;;
2022/11/12 02:36:00;;;;;;;32.7;15.5;;;;;;;4.93;92.47754;951.6501;;;;
2022/11/12 02:38:25;;;;;;;22.5;10;;;;;;;4.92;92.26367;951.505;;;;
2022/11/12 02:40:51;;;;;;;8.2;4;;;;;;;4.82;92.30957;951.5844;;;;
2022/11/12 02:43:16;;;;;;;4.7;2.7;;;;;;;4.77;92.35449;951.5782;;;;
2022/11/12 02:45:42;;;;;;;2.6;1.9;;;;;;;4.81;91.93164;951.5883;;;;
2022/11/12 02:48:07;;;;;;;3.3;1.7;;;;;;;4.73;92.0625;951.6161;;;;
2022/11/12 02:50:32;;;;;;;2;1.6;;;;;;;4.7;92.05664;951.5656;;;;
2022/11/12 02:53:00;;;;;;;1.8;1.4;;;;;;;4.43;93.65527;951.5428;;;;
2022/11/12 02:55:26;;;;;;;1.4;1.3;;;;;;;4.37;94.95605;951.5206;;;;
2022/11/12 02:57:53;;;;;;;2.3;1.5;;;;;;;4.42;94.97949;951.6223;;;;
2022/11/12 03:00:19;;;;;;;2.3;1.5;;;;;;;4.42;94.87793;951.6791;;;;
2022/11/12 03:02:57;;;;;;;1.8;1.4;;;;;;;4.37;95.15918;951.6408;;;;
2022/11/12 03:05:12;;;;;;;1.6;1.4;;;;;;;4.23;95.96289;951.6286;;;;
2022/11/12 03:07:42;;;;;;;2.1;1.5;;;;;;;4.28;96.32227;951.5894;;;;
2022/11/12 03:10:07;;;;;;;1.9;1.3;;;;;;;4.37;96.34277;951.4461;;;;
2022/11/12 03:12:37;;;;;;;2.2;1;;;;;;;4.55;95.96484;951.4812;;;;
2022/11/12 03:15:06;;;;;;;2;1.4;;;;;;;4.73;94.73242;951.3962;;;;
2022/11/12 03:17:37;;;;;;;1.2;1.1;;;;;;;4.84;93.95898;951.4664;;;;
2022/11/12 03:20:05;;;;;;;1.1;1;;;;;;;4.96;93.71191;951.4604;;;;
2022/11/12 03:22:30;;;;;;;1.3;1.1;;;;;;;4.98;93.75195;951.4356;;;;
2022/11/12 03:24:56;;;;;;;1.8;1.4;;;;;;;4.98;93.63867;951.3812;;;;
2022/11/12 03:27:27;;;;;;;2.4;1.3;;;;;;;4.99;93.37988;951.3317;;;;
2022/11/12 03:29:59;;;;;;;1.6;1.4;;;;;;;4.97;93.0625;951.3631;;;;
2022/11/12 03:32:24;;;;;;;1.7;1.2;;;;;;;4.97;93.10742;951.3315;;;;
2022/11/12 03:34:50;;;;;;;2.7;1.2;;;;;;;5.06;92.92188;951.3663;;;;
2022/11/12 03:37:15;;;;;;;1;1;;;;;;;4.91;93.2627;951.3142;;;;
2022/11/12 03:39:43;;;;;;;2.4;1.4;;;;;;;4.87;93.51367;951.2603;;;;
2022/11/12 03:42:09;;;;;;;1.8;1.3;;;;;;;4.85;93.71289;951.3397;;;;
2022/11/12 03:44:38;;;;;;;1.6;1.2;;;;;;;4.94;93.55176;951.305;;;;
2022/11/12 03:47:04;;;;;;;2.6;1.3;;;;;;;5.02;93.0293;951.2896;;;;
2022/11/12 03:49:30;;;;;;;1.3;1.2;;;;;;;5.08;92.66895;951.3148;;;;
2022/11/12 03:51:55;;;;;;;2.7;1.7;;;;;;;5.21;92.29004;951.253;;;;
2022/11/12 03:54:22;;;;;;;1.7;1.3;;;;;;;5.23;92.02539;951.2319;;;;
2022/11/12 03:57:32;;;;;;;1.1;1;;;;;;;5.04;93.0332;951.2668;;;;
2022/11/12 04:00:01;;;;;;;1.3;1.2;;;;;;;5.05;93.82422;951.3297;;;;
2022/11/12 04:02:33;;;;;;;2.4;1.5;;;;;;;4.95;94.32031;951.3036;;;;
2022/11/12 04:09:55;;;;;;;3.1;1.3;;;;;;;5.14;93.4248;951.3808;;;;
2022/11/12 04:14:46;;;;;;;2.7;1.4;;;;;;;5.35;92.94336;951.407;;;;
2022/11/12 04:22:01;;;;;;;1.7;1.2;;;;;;;5.71;91.06738;951.4094;;;;
2022/11/12 04:26:53;;;;;;;1.5;1.3;;;;;;;5.82;90.16406;951.5352;;;;
2022/11/12 04:31:46;;;;;;;3.8;1.2;;;;;;;5.83;89.91797;951.5815;;;;
2022/11/12 04:34:33;;;;;;;1.7;1.3;;;;;;;5.91;89.36816;951.6257;;;;
2022/11/12 04:36:39;;;;;;;3.2;1.6;;;;;;;5.92;89.08984;951.6622;;;;
2022/11/12 04:39:04;;;;;;;3.1;2;;;;;;;5.84;89.40039;951.7421;;;;
2022/11/12 04:47:15;;;;;;;2.4;1.8;;;;;;;5.77;89.72559;951.7704;;;;
2022/11/12 04:49:42;;;;;;;3.5;1.9;;;;;;;5.82;89.31738;951.8502;;;;
2022/11/12 04:52:07;;;;;;;3.5;2;;;;;;;5.82;89.03516;951.7834;;;;
2022/11/12 04:54:34;;;;;;;3.9;2.5;;;;;;;5.86;88.98633;951.8522;;;;
2022/11/12 04:57:32;;;;;;;3.2;2.1;;;;;;;5.85;89.08594;951.8354;;;;
2022/11/12 04:59:59;;;;;;;3.6;2.4;;;;;;;5.79;89.20996;951.873;;;;
2022/11/12 05:02:24;;;;;;;3.4;2.3;;;;;;;5.75;89.04395;951.8642;;;;
2022/11/12 05:04:51;;;;;;;3.6;2.3;;;;;;;5.76;89.38281;951.8361;;;;
2022/11/12 05:07:17;;;;;;;4.4;2.4;;;;;;;5.55;90.50195;951.8593;;;;
2022/11/12 05:09:44;;;;;;;4.9;2.5;;;;;;;5.64;90.0918;951.8799;;;;
2022/11/12 05:12:52;;;;;;;2.9;2.1;;;;;;;5.65;89.45117;951.8292;;;;
2022/11/12 05:15:18;;;;;;;2.4;1.9;;;;;;;5.56;89.75879;951.923;;;;
2022/11/12 05:17:44;;;;;;;3.2;1.8;;;;;;;5.46;90.22363;951.8895;;;;
2022/11/12 05:20:14;;;;;;;1.7;1.6;;;;;;;5.26;91.38867;951.9303;;;;
2022/11/12 05:22:42;;;;;;;2.7;1.6;;;;;;;5.21;91.69238;951.8992;;;;
2022/11/12 05:25:07;;;;;;;2.5;1.9;;;;;;;5.1;92.34766;951.8574;;;;
2022/11/12 05:27:35;;;;;;;2;1.6;;;;;;;5.12;92.2373;951.791;;;;
2022/11/12 05:30:00;;;;;;;2.8;1.8;;;;;;;5.14;92.17285;951.8845;;;;
2022/11/12 05:32:26;;;;;;;1.7;1.4;;;;;;;5.16;92.39355;951.8594;;;;
2022/11/12 05:34:51;;;;;;;2;1.4;;;;;;;5.24;91.95996;951.8411;;;;
2022/11/12 05:37:18;;;;;;;2.4;1.5;;;;;;;5.32;91.90723;951.8117;;;;
2022/11/12 05:39:43;;;;;;;2.6;1.4;;;;;;;5.41;91.04883;951.7836;;;;
2022/11/12 05:43:09;;;;;;;2.3;1.9;;;;;;;5.46;90.82129;951.8557;;;;
2022/11/12 05:45:36;;;;;;;2.5;1.8;;;;;;;5.45;90.89648;951.8242;;;;
2022/11/12 05:48:01;;;;;;;2.3;1.9;;;;;;;5.43;90.91895;951.7722;;;;
2022/11/12 05:50:30;;;;;;;6.7;4;;;;;;;5.32;91.24219;951.676;;;;
2022/11/12 05:52:55;;;;;;;6.2;4.3;;;;;;;5.13;92.02637;951.7405;;;;
2022/11/12 05:55:25;;;;;;;9.1;5.2;;;;;;;5.19;91.76758;951.741;;;;
2022/11/12 05:57:52;;;;;;;23.5;11;;;;;;;5.26;91.44434;951.7427;;;;
2022/11/12 06:00:17;;;;;;;15.5;8.2;;;;;;;5.21;91.58008;951.7106;;;;
2022/11/12 06:02:44;;;;;;;9;5.2;;;;;;;5.08;92.25195;951.8058;;;;
2022/11/12 06:05:09;;;;;;;8;5.3;;;;;;;5.08;92.38672;951.8498;;;;
2022/11/12 06:10:12;;;;;;;9.3;5.4;;;;;;;4.98;92.87207;951.817;;;;
2022/11/12 06:12:37;;;;;;;9.1;5.9;;;;;;;4.96;92.8125;951.8885;;;;
2022/11/12 06:15:04;;;;;;;10.5;5.5;;;;;;;4.88;93.24512;951.8998;;;;
2022/11/12 06:17:30;;;;;;;8.8;6.1;;;;;;;4.79;93.75488;951.9069;;;;
2022/11/12 06:19:57;;;;;;;9.5;6.2;;;;;;;4.83;93.81934;951.9501;;;;
2022/11/12 06:22:22;;;;;;;11.6;5.8;;;;;;;4.97;93.01563;951.9258;;;;
2022/11/12 06:24:50;;;;;;;12;7.9;;;;;;;5.07;92.04688;951.9961;;;;
2022/11/12 06:27:15;;;;;;;12.4;7.9;;;;;;;5.18;91.27148;951.9317;;;;
2022/11/12 06:29:43;;;;;;;10.9;7.8;;;;;;;5.23;90.89746;951.9802;;;;
2022/11/12 06:32:08;;;;;;;13.5;10.1;;;;;;;5.1;91.78223;951.9139;;;;
2022/11/12 06:34:37;;;;;;;11;6.9;;;;;;;5.03;92.0957;951.9651;;;;
2022/11/12 06:40:31;;;;;;;8.6;5.7;;;;;;;5.23;91.6875;951.9172;;;;
2022/11/12 06:43:01;;;;;;;7.5;4;;;;;;;5.33;91.49414;951.9822;;;;
2022/11/12 06:45:35;;;;;;;7;4.5;;;;;;;5.46;90.83301;952.0689;;;;
2022/11/12 06:48:09;;;;;;;5.7;4.6;;;;;;;5.55;90.40039;952.087;;;;
2022/11/12 06:50:35;;;;;;;7.6;5.1;;;;;;;5.58;90.04688;952.0829;;;;
2022/11/12 06:53:00;;;;;;;7.3;5.4;;;;;;;5.63;89.93262;952.0959;;;;
2022/11/12 06:55:26;;;;;;;8.5;5.9;;;;;;;5.66;89.55469;952.0895;;;;
2022/11/12 06:57:52;;;;;;;9;6.2;;;;;;;5.51;89.89648;952.0731;;;;
2022/11/12 07:00:20;;;;;;;12.2;7;;;;;;;5.49;90.33105;952.0405;;;;
2022/11/12 07:02:45;;;;;;;11;6.7;;;;;;;5.59;89.83398;952.0882;;;;
2022/11/12 07:05:15;;;;;;;9;6.1;;;;;;;5.7;89.50684;952.0736;;;;
2022/11/12 07:07:42;;;;;;;13.5;7;;;;;;;5.68;90.08887;952.0176;;;;
2022/11/12 07:10:07;;;;;;;10.2;6.3;;;;;;;5.79;89.55957;952.0503;;;;
2022/11/12 07:12:35;;;;;;;9.8;6;;;;;;;5.93;89.10449;952.0911;;;;
2022/11/12 07:15:01;;;;;;;10.4;6.9;;;;;;;6.07;88.54492;952.1437;;;;
2022/11/12 07:17:30;;;;;;;10.7;7.3;;;;;;;6.18;88.5;952.0786;;;;
2022/11/12 07:19:56;;;;;;;9.6;7.5;;;;;;;6.35;88.10547;952.0539;;;;
2022/11/12 07:22:21;;;;;;;9.5;6.4;;;;;;;6.45;87.3457;952.0474;;;;
2022/11/12 07:24:50;;;;;;;7.4;5.6;;;;;;;6.43;87.5459;952.0192;;;;
2022/11/12 07:27:15;;;;;;;7.2;5;;;;;;;6.42;88.09766;952.0173;;;;
2022/11/12 07:29:41;;;;;;;5.2;4.1;;;;;;;6.61;87.93359;952.085;;;;
2022/11/12 07:32:06;;;;;;;4.1;3;;;;;;;6.67;87.80664;952.0385;;;;
2022/11/12 07:34:40;;;;;;;4;3.1;;;;;;;6.79;87.28906;951.9355;;;;
2022/11/12 07:37:07;;;;;;;7.5;4.6;;;;;;;7.06;86.14551;952.0128;;;;
2022/11/12 07:39:32;;;;;;;8.6;5.2;;;;;;;7.34;84.98926;951.9636;;;;
2022/11/12 07:42:02;;;;;;;7.9;5.1;;;;;;;7.57;83.53906;951.9175;;;;
2022/11/12 07:44:29;;;;;;;7.3;5.6;;;;;;;7.58;83.33496;951.9487;;;;
2022/11/12 07:46:54;;;;;;;6.9;4.9;;;;;;;7.68;83.28613;951.9629;;;;
2022/11/12 07:50:03;;;;;;;7.5;5.3;;;;;;;7.71;82.95117;951.9395;;;;
2022/11/12 07:52:28;;;;;;;6.7;3.4;;;;;;;7.66;83.60938;951.8667;;;;
2022/11/12 07:54:53;;;;;;;4.4;3.1;;;;;;;7.81;83.50293;951.9076;;;;
2022/11/12 07:57:18;;;;;;;3.1;2.4;;;;;;;8.07;82.87305;951.9319;;;;
2022/11/12 07:59:43;;;;;;;5.2;3;;;;;;;8.29;82.09863;951.8879;;;;
2022/11/12 08:02:14;;;;;;;3.8;2.3;;;;;;;8.37;81.66992;951.8636;;;;
2022/11/12 08:04:43;;;;;;;6.4;3.5;;;;;;;8.19;81.33984;951.8116;;;;
2022/11/12 08:07:09;;;;;;;10.3;6.7;;;;;;;8.12;81.57617;951.8569;;;;
2022/11/12 08:09:38;;;;;;;8.1;6;;;;;;;8.35;81.00684;951.8825;;;;
2022/11/12 08:12:08;;;;;;;6.2;4.2;;;;;;;8.67;79.73828;951.8539;;;;
2022/11/12 08:14:33;;;;;;;4.5;2.9;;;;;;;8.91;78.61035;951.8814;;;;
2022/11/12 08:17:00;;;;;;;3.7;2.9;;;;;;;9.18;77.43066;951.9059;;;;
2022/11/12 08:19:25;;;;;;;4.5;2.7;;;;;;;9.35;77.62012;951.9131;;;;
2022/11/12 08:21:51;;;;;;;6.4;3.6;;;;;;;9.57;76.41895;951.8689;;;;
2022/11/12 08:24:17;;;;;;;8.1;4.4;;;;;;;9.86;75.34082;951.9319;;;;
2022/11/12 08:26:42;;;;;;;8.3;4.9;;;;;;;10.08;74.85352;951.9942;;;;
2022/11/12 08:29:07;;;;;;;8.9;4.1;;;;;;;10.36;73.60059;951.9763;;;;
2022/11/12 08:31:34;;;;;;;5.7;2.6;;;;;;;10.47;72.04395;952;;;;
2022/11/12 08:34:10;;;;;;;3.8;2.5;;;;;;;10.43;72.27734;952.0193;;;;
2022/11/12 08:36:25;;;;;;;2.7;2.1;;;;;;;10.41;72.02344;952.007;;;;
2022/11/12 08:38:50;;;;;;;5.8;3;;;;;;;10.53;72.01074;951.9827;;;;
2022/11/12 08:41:16;;;;;;;3.7;2.5;;;;;;;10.68;71.10938;951.9447;;;;
2022/11/12 08:43:43;;;;;;;4;2.4;;;;;;;10.82;70.66309;951.9142;;;;
2022/11/12 08:46:09;;;;;;;4.2;2.7;;;;;;;10.99;69.46973;951.9345;;;;
2022/11/12 08:48:34;;;;;;;4;3;;;;;;;11.24;70.07031;951.9138;;;;
2022/11/12 08:50:59;;;;;;;4.4;3;;;;;;;11.32;68.52637;951.8522;;;;
2022/11/12 08:53:27;;;;;;;5.2;2.5;;;;;;;11.33;67.93359;951.843;;;;
2022/11/12 08:55:52;;;;;;;3.2;2.7;;;;;;;11;69.68652;951.8599;;;;
2022/11/12 08:58:19;;;;;;;6.1;2.5;;;;;;;10.92;71.32129;951.8696;;;;
2022/11/12 09:00:45;;;;;;;4.3;2.6;;;;;;;10.91;72.05078;951.8644;;;;
2022/11/12 09:03:12;;;;;;;3.8;2.4;;;;;;;11.09;72.18359;951.8797;;;;
2022/11/12 09:05:37;;;;;;;3.8;2.4;;;;;;;11.15;70.74023;951.7687;;;;
2022/11/12 09:08:05;;;;;;;3.7;2.4;;;;;;;11.28;70.19141;951.8767;;;;
2022/11/12 09:10:30;;;;;;;3.8;2.7;;;;;;;11.42;68.33789;951.9359;;;;
2022/11/12 09:12:57;;;;;;;6.3;3.7;;;;;;;11.47;67.29199;951.8217;;;;
2022/11/12 09:15:22;;;;;;;4.9;3.2;;;;;;;11.62;66.57227;951.8986;;;;
2022/11/12 09:17:47;;;;;;;5.8;4;;;;;;;11.66;66.72559;951.8876;;;;
2022/11/12 09:20:14;;;;;;;3.6;3;;;;;;;11.68;66.13379;951.8237;;;;
2022/11/12 09:22:39;;;;;;;3.7;2.7;;;;;;;11.68;66.41992;951.8499;;;;
2022/11/12 09:25:06;;;;;;;4.6;2.6;;;;;;;11.68;67.03809;951.8555;;;;
2022/11/12 09:27:31;;;;;;;2.3;2.1;;;;;;;11.79;67.16992;951.8963;;;;
2022/11/12 09:29:58;;;;;;;3.9;2.6;;;;;;;11.96;67.00195;951.8411;;;;
2022/11/12 09:32:23;;;;;;;2.6;2.1;;;;;;;12.09;65.69141;951.848;;;;
2022/11/12 09:34:50;;;;;;;3.7;2.4;;;;;;;12.15;67.45508;951.847;;;;
2022/11/12 09:37:35;;;;;;;3.2;2;;;;;;;12.3;68.66992;951.812;;;;
2022/11/12 09:40:10;;;;;;;2.5;2.2;;;;;;;12.44;67.3291;951.8334;;;;
2022/11/12 09:42:35;;;;;;;3.5;2;;;;;;;12.31;66.89551;951.8602;;;;
2022/11/12 09:45:02;;;;;;;3.3;2.2;;;;;;;12.32;67.64063;951.866;;;;
2022/11/12 09:47:29;;;;;;;4;2.7;;;;;;;12.48;66.39258;951.8088;;;;
2022/11/12 09:49:54;;;;;;;4.8;2.9;;;;;;;12.57;66.73926;951.8203;;;;
2022/11/12 09:52:19;;;;;;;6.6;3.3;;;;;;;12.59;67.0752;951.7441;;;;
2022/11/12 09:54:44;;;;;;;5.5;3.4;;;;;;;12.75;67.13477;951.7698;;;;
2022/11/12 09:57:09;;;;;;;7;4.4;;;;;;;12.8;66.09863;951.7517;;;;
2022/11/12 09:59:34;;;;;;;4.3;3.1;;;;;;;12.7;63.87988;951.6719;;;;
2022/11/12 10:02:00;;;;;;;6.2;3.2;;;;;;;12.72;64.87109;951.6404;;;;
2022/11/12 10:04:27;;;;;;;5;3.5;;;;;;;12.93;64.51172;951.7374;;;;
2022/11/12 10:09:32;;;;;;;3.6;2.7;;;;;;;13.69;62.42773;951.6183;;;;
2022/11/12 10:14:23;;;;;;;3.9;2.4;;;;;;;14.33;58.77441;951.6071;;;;
2022/11/12 10:16:54;;;;;;;3.9;2.8;;;;;;;14.4;57.10254;951.6403;;;;
2022/11/12 10:19:19;;;;;;;4.3;2.7;;;;;;;14.64;56.01563;951.5697;;;;
2022/11/12 10:21:44;;;;;;;3.2;2.4;;;;;;;14.91;56.37402;951.5251;;;;
2022/11/12 10:24:10;;;;;;;3.6;2.7;;;;;;;15.06;54.39648;951.4408;;;;
2022/11/12 10:26:38;;;;;;;5.1;3.5;;;;;;;15.25;52.98926;951.4556;;;;
2022/11/12 10:29:03;;;;;;;5;3.7;;;;;;;15.45;53.18652;951.4238;;;;
2022/11/12 10:31:29;;;;;;;4.7;3.1;;;;;;;15.52;51.2666;951.4133;;;;
2022/11/12 10:33:54;;;;;;;4.4;2.8;;;;;;;15.52;50.35547;951.3812;;;;
2022/11/12 10:36:19;;;;;;;3.1;2.5;;;;;;;15.34;49.16699;951.3506;;;;
2022/11/12 10:38:44;;;;;;;3.1;2;;;;;;;15.4;50.01758;951.3273;;;;
2022/11/12 10:41:10;;;;;;;2.8;2.4;;;;;;;15.54;50.32227;951.2883;;;;
2022/11/12 10:43:34;;;;;;;3.2;2.8;;;;;;;15.66;51.4209;951.2477;;;;
2022/11/12 10:46:02;;;;;;;3.1;2.2;;;;;;;15.71;51.99316;951.1727;;;;
2022/11/12 10:48:31;;;;;;;2.2;1.7;;;;;;;15.82;51.02441;951.1674;;;;
2022/11/12 10:50:52;;;;;;;3.6;1.8;;;;;;;15.88;49.85254;951.1498;;;;
2022/11/12 10:53:19;;;;;;;3.7;2;;;;;;;16.03;50.18262;951.1074;;;;
2022/11/12 10:59:37;;;;;;;2.8;2.4;;;;;;;16.1;48.7334;951.1031;;;;
2022/11/12 11:02:03;;;;;;;3.2;2.6;;;;;;;15.9;49.06934;951.0793;;;;
2022/11/12 11:04:28;;;;;;;5.2;2.9;;;;;;;15.83;49.11914;951.0016;;;;
2022/11/12 11:06:55;;;;;;;3.8;2.6;;;;;;;16.04;48.77148;951.0134;;;;
2022/11/12 11:09:22;;;;;;;2.7;2.3;;;;;;;16.28;48.13965;950.9458;;;;
2022/11/12 11:11:47;;;;;;;3.8;2.1;;;;;;;16.46;49.2832;950.9128;;;;
2022/11/12 11:14:43;;;;;;;1.9;1.4;;;;;;;16.46;47.55762;950.9192;;;;
2022/11/12 11:17:09;;;;;;;1.5;1.4;;;;;;;16.56;48.12402;950.8749;;;;
2022/11/12 11:19:34;;;;;;;1.2;1.1;;;;;;;16.63;47.81934;950.7744;;;;
2022/11/12 11:21:59;;;;;;;2.2;1.2;;;;;;;16.66;47.42969;950.7006;;;;
2022/11/12 11:24:24;;;;;;;1.8;1.2;;;;;;;16.58;47.0957;950.674;;;;
2022/11/12 11:26:52;;;;;;;2.2;1.4;;;;;;;16.68;47.74414;950.6318;;;;
2022/11/12 11:29:17;;;;;;;2.2;1.9;;;;;;;16.7;46.03223;950.6223;;;;
2022/11/12 11:31:42;;;;;;;3.5;2.8;;;;;;;16.76;46.44336;950.596;;;;
2022/11/12 11:34:07;;;;;;;3.8;2.8;;;;;;;16.79;45.85645;950.5503;;;;
2022/11/12 11:36:32;;;;;;;4.3;3.2;;;;;;;17.01;45.56543;950.5452;;;;
2022/11/12 11:39:03;;;;;;;4.7;3.9;;;;;;;17.23;45.93652;950.5193;;;;
2022/11/12 11:41:30;;;;;;;5.4;4.4;;;;;;;17.39;46.35938;950.5101;;;;
2022/11/12 11:43:58;;;;;;;5.4;4.1;;;;;;;17.26;45.70801;950.5195;;;;
2022/11/12 11:46:27;;;;;;;5.9;4.3;;;;;;;17.29;45.76855;950.5139;;;;
2022/11/12 11:48:53;;;;;;;5.6;4.3;;;;;;;17.37;46.79688;950.4111;;;;
2022/11/12 11:51:18;;;;;;;7.9;4.5;;;;;;;17.38;45.79102;950.4063;;;;
2022/11/12 11:53:43;;;;;;;6.5;5.1;;;;;;;17.53;46.67578;950.3795;;;;
2022/11/12 11:56:09;;;;;;;4.8;3.6;;;;;;;17.66;47.24609;950.3624;;;;
2022/11/12 11:58:34;;;;;;;4.7;3.4;;;;;;;17.65;48.10449;950.3035;;;;
2022/11/12 12:00:59;;;;;;;4.2;3.1;;;;;;;17.63;47.91699;950.318;;;;
2022/11/12 12:03:29;;;;;;;4.6;3.5;;;;;;;17.59;49.47852;950.2597;;;;
2022/11/12 12:05:51;;;;;;;5.3;3.7;;;;;;;17.42;50.42188;950.2534;;;;
2022/11/12 12:08:16;;;;;;;9.1;5.7;;;;;;;17.04;54.71387;950.2776;;;;
2022/11/12 12:10:41;;;;;;;6.7;4.6;;;;;;;16.8;57.34766;950.2342;;;;
2022/11/12 12:13:06;;;;;;;5.9;4.6;;;;;;;16.8;57;950.2559;;;;
2022/11/12 12:15:32;;;;;;;5.2;4.2;;;;;;;16.85;58.15332;950.2404;;;;
2022/11/12 12:18:00;;;;;;;5.3;4.1;;;;;;;17.06;57.22949;950.2375;;;;
2022/11/12 12:20:22;;;;;;;6.5;4;;;;;;;17.34;55.90918;950.1903;;;;
2022/11/12 12:22:48;;;;;;;7;4.2;;;;;;;17.58;55.11621;950.2548;;;;
2022/11/12 12:25:13;;;;;;;4.8;3.6;;;;;;;17.91;53.77734;950.194;;;;
2022/11/12 12:27:38;;;;;;;4.5;3.4;;;;;;;18.19;52.99707;950.1781;;;;
2022/11/12 12:30:03;;;;;;;5.7;3.7;;;;;;;18.47;51.4834;950.1356;;;;
2022/11/12 12:32:28;;;;;;;4.5;3.4;;;;;;;18.58;50.47363;950.1555;;;;
2022/11/12 12:34:53;;;;;;;3.4;2.9;;;;;;;18.56;50.47168;950.1531;;;;
2022/11/12 12:37:20;;;;;;;4.1;3.3;;;;;;;18.36;50.64648;950.1597;;;;
2022/11/12 12:39:45;;;;;;;5.9;3.4;;;;;;;18.09;51.5918;950.1806;;;;
2022/11/12 12:42:11;;;;;;;4.7;3.6;;;;;;;17.84;52.71191;950.1859;;;;
2022/11/12 12:45:00;;;;;;;3.7;3.1;;;;;;;17.68;53.24902;950.1895;;;;
2022/11/12 12:47:05;;;;;;;3.3;2.9;;;;;;;17.61;53.33398;950.1428;;;;
2022/11/12 12:49:30;;;;;;;4.3;3.3;;;;;;;17.53;53.45215;950.1283;;;;
2022/11/12 12:51:55;;;;;;;4.6;2.7;;;;;;;17.47;54.08203;950.075;;;;
2022/11/12 12:54:21;;;;;;;3.2;2.7;;;;;;;17.34;54.93652;949.9858;;;;
2022/11/12 12:56:46;;;;;;;3.8;3;;;;;;;17.17;56.45703;950.0858;;;;
2022/11/12 12:59:11;;;;;;;3.5;2.6;;;;;;;17.14;56.2334;950.0229;;;;
2022/11/12 13:01:37;;;;;;;3.7;2.6;;;;;;;17.24;55.87402;950.0098;;;;
2022/11/12 13:04:03;;;;;;;2.9;2.4;;;;;;;17.51;54.25;949.9792;;;;
2022/11/12 13:06:28;;;;;;;3.4;2.6;;;;;;;17.75;53.91992;949.9608;;;;
2022/11/12 13:08:52;;;;;;;2.9;2.6;;;;;;;17.52;53.28711;949.9551;;;;
2022/11/12 13:12:20;;;;;;;3.5;2.6;;;;;;;17.08;54.21973;949.9373;;;;
2022/11/12 13:13:47;;;;;;;3.9;2.7;;;;;;;17.27;53.21191;949.9366;;;;
2022/11/12 13:16:13;;;;;;;3;2.5;;;;;;;17.35;52.79199;949.9062;;;;
2022/11/12 13:18:38;;;;;;;4;2.5;;;;;;;17.37;52.90918;949.9908;;;;
2022/11/12 13:21:06;;;;;;;5.4;3.1;;;;;;;17.43;52.37207;949.9179;;;;
2022/11/12 13:23:32;;;;;;;2.6;2.3;;;;;;;17.56;50.32324;949.9189;;;;
2022/11/12 13:25:57;;;;;;;3.3;2.5;;;;;;;17.55;49.26563;949.9116;;;;
2022/11/12 13:28:22;;;;;;;5.6;2.5;;;;;;;17.51;49.81836;949.9349;;;;
2022/11/12 13:30:47;;;;;;;3.4;2.4;;;;;;;17.46;51.00684;949.9203;;;;
2022/11/12 13:33:12;;;;;;;3.6;2.1;;;;;;;17.39;51.31152;949.8805;;;;
2022/11/12 13:35:38;;;;;;;3.5;2.4;;;;;;;17.37;51.94727;949.9239;;;;
2022/11/12 13:38:05;;;;;;;3.5;2.2;;;;;;;17.24;52.26855;950.0033;;;;
2022/11/12 13:40:34;;;;;;;3.1;2.3;;;;;;;17.23;52.32422;949.9832;;;;
2022/11/12 13:43:02;;;;;;;2.7;2.2;;;;;;;17.21;52.16016;949.9554;;;;
2022/11/12 13:45:30;;;;;;;3.1;2.1;;;;;;;17.2;52.49512;949.9433;;;;
2022/11/12 13:47:55;;;;;;;2.3;2.1;;;;;;;16.99;53.22461;950.0181;;;;
2022/11/12 13:50:21;;;;;;;3;2.2;;;;;;;17;53.375;949.9666;;;;
2022/11/12 13:52:47;;;;;;;3.6;2.2;;;;;;;17.07;53.16406;949.8335;;;;
2022/11/12 13:55:12;;;;;;;3.4;2.4;;;;;;;17.13;52.8125;949.8248;;;;
2022/11/12 13:57:40;;;;;;;2.5;2.2;;;;;;;17.15;53.02344;949.8176;;;;
2022/11/12 14:00:05;;;;;;;3.1;2.5;;;;;;;17.13;52.86914;949.8208;;;;
2022/11/12 14:02:33;;;;;;;2.3;2;;;;;;;17.01;52.7168;949.7767;;;;
2022/11/12 14:04:58;;;;;;;2.1;1.9;;;;;;;16.82;53.13477;949.8719;;;;
2022/11/12 14:07:30;;;;;;;3.2;2.1;;;;;;;16.57;54.16797;949.8287;;;;
2022/11/12 14:09:58;;;;;;;2.4;2;;;;;;;16.51;54.80957;949.8276;;;;
2022/11/12 14:12:23;;;;;;;2.4;2;;;;;;;16.57;54.74707;949.7902;;;;
2022/11/12 14:14:48;;;;;;;2.9;2.1;;;;;;;16.77;54.58691;949.8326;;;;
2022/11/12 14:17:14;;;;;;;5.8;2.5;;;;;;;16.95;54.22656;949.8047;;;;
2022/11/12 14:19:39;;;;;;;2.2;1.9;;;;;;;17;53.8623;949.7783;;;;
2022/11/12 14:22:05;;;;;;;2.2;2;;;;;;;16.99;54.3252;949.7058;;;;
2022/11/12 14:24:31;;;;;;;4.5;2.3;;;;;;;16.96;54.2168;949.6624;;;;
2022/11/12 14:26:58;;;;;;;2.6;2.2;;;;;;;16.8;54.60254;949.7145;;;;
2022/11/12 14:29:23;;;;;;;2.7;2.2;;;;;;;16.63;54.45313;949.7111;;;;
2022/11/12 14:31:49;;;;;;;2.5;2.1;;;;;;;16.47;54.25977;949.6481;;;;
2022/11/12 14:34:14;;;;;;;2.3;1.9;;;;;;;16.3;54.50488;949.6042;;;;
2022/11/12 14:36:39;;;;;;;3.4;2.3;;;;;;;16.09;55.3457;949.5513;;;;
2022/11/12 14:39:06;;;;;;;2.9;2.1;;;;;;;15.93;55.76465;949.4881;;;;
2022/11/12 14:41:31;;;;;;;2.8;2;;;;;;;15.77;56.25391;949.5389;;;;
2022/11/12 14:43:58;;;;;;;3.2;2.1;;;;;;;15.6;56.9707;949.5268;;;;
2022/11/12 14:46:23;;;;;;;3;2.1;;;;;;;15.43;57.83887;949.4994;;;;
2022/11/12 14:48:48;;;;;;;3.6;2;;;;;;;15.22;58.43359;949.5461;;;;
2022/11/12 14:51:15;;;;;;;2.2;2;;;;;;;14.99;59.27832;949.5103;;;;
2022/11/12 14:53:40;;;;;;;2.3;2.1;;;;;;;14.79;60.04688;949.515;;;;
2022/11/12 14:56:05;;;;;;;2.2;2;;;;;;;14.58;60.64063;949.4827;;;;
2022/11/12 14:58:31;;;;;;;4.3;2.2;;;;;;;14.4;61.30859;949.4437;;;;
2022/11/12 15:00:56;;;;;;;4.4;2.3;;;;;;;14.26;61.79395;949.4803;;;;
2022/11/12 15:03:21;;;;;;;2.6;2.1;;;;;;;14.09;62.27734;949.4409;;;;
2022/11/12 15:05:49;;;;;;;3.2;2.4;;;;;;;13.97;62.87012;949.4109;;;;
2022/11/12 15:08:17;;;;;;;3.4;2.4;;;;;;;13.86;63.31348;949.4214;;;;
2022/11/12 15:10:47;;;;;;;3.1;2.8;;;;;;;13.7;63.85352;949.4363;;;;